createdAt,value
2023-02-12T00:00:22.582Z,1033.13
2023-02-12T00:01:22.544Z,1033.12
2023-02-12T00:02:22.581Z,1033.14
2023-02-12T00:03:22.539Z,1033.09
2023-02-12T00:04:22.522Z,1033.10
2023-02-12T00:05:22.516Z,1033.07
2023-02-12T00:06:22.516Z,1033.08
2023-02-12T00:07:22.498Z,1033.11
2023-02-12T00:08:22.485Z,1033.10
2023-02-12T00:09:22.485Z,1033.07
2023-02-12T00:10:22.472Z,1033.07
2023-02-12T00:11:22.469Z,1033.06
2023-02-12T00:12:22.455Z,1033.06
2023-02-12T00:13:22.463Z,1033.06
2023-02-12T00:14:22.450Z,1033.09
2023-02-12T00:15:22.432Z,1033.06
2023-02-12T00:16:22.583Z,1033.09
2023-02-12T00:17:22.419Z,1033.12
2023-02-12T00:18:22.410Z,1033.10
2023-02-12T00:19:22.408Z,1033.10
2023-02-12T00:20:22.393Z,1033.07
2023-02-12T00:21:22.395Z,1033.10
2023-02-12T00:22:22.387Z,1033.05
2023-02-12T00:23:22.371Z,1033.09
2023-02-12T00:24:22.363Z,1033.06
2023-02-12T00:25:22.356Z,1033.03
2023-02-12T00:26:22.348Z,1033.07
2023-02-12T00:27:22.339Z,1033.06
2023-02-12T00:28:22.545Z,1033.07
2023-02-12T00:29:22.337Z,1033.06
2023-02-12T00:30:22.356Z,1033.06
2023-02-12T00:31:22.534Z,1033.06
2023-02-12T00:32:22.319Z,1033.09
2023-02-12T00:33:22.301Z,1033.08
2023-02-12T00:34:22.288Z,1033.10
2023-02-12T00:35:22.283Z,1033.09
2023-02-12T00:36:22.273Z,1033.11
2023-02-12T00:37:22.267Z,1033.12
2023-02-12T00:38:22.262Z,1033.14
2023-02-12T00:39:22.249Z,1033.13
2023-02-12T00:40:22.242Z,1033.18
2023-02-12T00:41:22.235Z,1033.16
2023-02-12T00:42:22.224Z,1033.16
2023-02-12T00:43:22.217Z,1033.15
2023-02-12T00:44:22.222Z,1033.14
2023-02-12T00:45:22.207Z,1033.15
2023-02-12T00:46:22.253Z,1033.13
2023-02-12T00:47:22.190Z,1033.14
2023-02-12T00:48:22.199Z,1033.11
2023-02-12T00:49:22.182Z,1033.14
2023-02-12T00:50:22.170Z,1033.15
2023-02-12T00:51:22.158Z,1033.12
2023-02-12T00:52:22.159Z,1033.14
2023-02-12T00:53:22.144Z,1033.12
2023-02-12T00:54:22.141Z,1033.11
2023-02-12T00:55:22.125Z,1033.12
2023-02-12T00:56:22.129Z,1033.09
2023-02-12T00:57:22.113Z,1033.08
2023-02-12T00:58:22.100Z,1033.10
2023-02-12T00:59:22.098Z,1033.07
2023-02-12T01:00:22.121Z,1033.04
2023-02-12T01:01:22.124Z,1033.07
2023-02-12T01:02:22.079Z,1033.06
2023-02-12T01:03:22.072Z,1033.06
2023-02-12T01:04:22.084Z,1033.10
2023-02-12T01:05:22.116Z,1033.10
2023-02-12T01:06:22.052Z,1033.10
2023-02-12T01:07:22.038Z,1033.10
2023-02-12T01:08:22.037Z,1033.11
2023-02-12T01:09:22.021Z,1033.07
2023-02-12T01:10:22.043Z,1033.03
2023-02-12T01:11:22.014Z,1032.99
2023-02-12T01:12:21.998Z,1032.98
2023-02-12T01:13:21.993Z,1032.97
2023-02-12T01:14:22.234Z,1032.96
2023-02-12T01:15:21.975Z,1033.05
2023-02-12T01:16:22.145Z,1033.05
2023-02-12T01:17:21.964Z,1033.04
2023-02-12T01:18:21.957Z,1033.04
2023-02-12T01:19:21.949Z,1033.03
2023-02-12T01:20:21.955Z,1033.02
2023-02-12T01:21:21.933Z,1033.01
2023-02-12T01:22:21.922Z,1033.01
2023-02-12T01:23:21.923Z,1033.00
2023-02-12T01:24:21.910Z,1032.98
2023-02-12T01:25:21.900Z,1032.99
2023-02-12T01:26:21.891Z,1032.95
2023-02-12T01:27:21.888Z,1032.94
2023-02-12T01:28:21.901Z,1032.93
2023-02-12T01:29:21.873Z,1032.94
2023-02-12T01:30:21.863Z,1032.94
2023-02-12T01:31:22.015Z,1032.91
2023-02-12T01:32:21.928Z,1032.90
2023-02-12T01:33:21.851Z,1032.90
2023-02-12T01:34:21.830Z,1032.92
2023-02-12T01:35:21.824Z,1032.94
2023-02-12T01:36:21.832Z,1032.93
2023-02-12T01:37:21.808Z,1032.94
2023-02-12T01:38:21.798Z,1032.95
2023-02-12T01:39:21.793Z,1032.98
2023-02-12T01:40:21.790Z,1032.95
2023-02-12T01:41:21.794Z,1032.96
2023-02-12T01:42:21.781Z,1032.94
2023-02-12T01:43:21.766Z,1032.92
2023-02-12T01:44:21.753Z,1032.91
2023-02-12T01:45:21.754Z,1032.91
2023-02-12T01:46:21.784Z,1032.89
2023-02-12T01:47:21.737Z,1032.86
2023-02-12T01:48:21.719Z,1032.90
2023-02-12T01:49:21.713Z,1032.93
2023-02-12T01:50:21.707Z,1032.87
2023-02-12T01:51:21.700Z,1032.88
2023-02-12T01:52:21.708Z,1032.88
2023-02-12T01:53:21.688Z,1032.87
2023-02-12T01:54:21.675Z,1032.89
2023-02-12T01:55:21.686Z,1032.87
2023-02-12T01:56:21.660Z,1032.85
2023-02-12T01:57:21.653Z,1032.87
2023-02-12T01:58:21.642Z,1032.84
2023-02-12T01:59:21.640Z,1032.85
2023-02-12T02:00:21.631Z,1032.84
2023-02-12T02:01:21.664Z,1032.86
2023-02-12T02:02:21.615Z,1032.88
2023-02-12T02:03:21.642Z,1032.88
2023-02-12T02:04:21.599Z,1032.84
2023-02-12T02:05:21.595Z,1032.85
2023-02-12T02:06:21.582Z,1032.88
2023-02-12T02:07:21.577Z,1032.86
2023-02-12T02:08:21.594Z,1032.89
2023-02-12T02:09:21.562Z,1032.91
2023-02-12T02:10:21.550Z,1032.91
2023-02-12T02:11:21.543Z,1032.91
2023-02-12T02:12:21.538Z,1032.91
2023-02-12T02:13:21.530Z,1032.92
2023-02-12T02:14:21.519Z,1032.94
2023-02-12T02:15:21.512Z,1032.91
2023-02-12T02:16:21.522Z,1032.90
2023-02-12T02:17:21.497Z,1032.88
2023-02-12T02:18:21.484Z,1032.86
2023-02-12T02:19:21.931Z,1032.84
2023-02-12T02:20:21.473Z,1032.86
2023-02-12T02:21:21.464Z,1032.87
2023-02-12T02:22:21.454Z,1032.85
2023-02-12T02:23:21.448Z,1032.89
2023-02-12T02:24:21.475Z,1032.88
2023-02-12T02:25:21.433Z,1032.86
2023-02-12T02:26:21.419Z,1032.90
2023-02-12T02:27:21.415Z,1032.89
2023-02-12T02:28:21.466Z,1032.86
2023-02-12T02:29:21.406Z,1032.86
2023-02-12T02:30:21.390Z,1032.84
2023-02-12T02:31:21.554Z,1032.81
2023-02-12T02:32:21.380Z,1032.82
2023-02-12T02:33:21.371Z,1032.82
2023-02-12T02:34:21.367Z,1032.80
2023-02-12T02:35:21.352Z,1032.80
2023-02-12T02:36:22.609Z,1032.79
2023-02-12T02:37:21.336Z,1032.75
2023-02-12T02:38:21.332Z,1032.74
2023-02-12T02:39:21.321Z,1032.74
2023-02-12T02:40:21.337Z,1032.77
2023-02-12T02:41:21.311Z,1032.78
2023-02-12T02:42:21.299Z,1032.75
2023-02-12T02:43:21.289Z,1032.77
2023-02-12T02:44:21.282Z,1032.79
2023-02-12T02:45:21.274Z,1032.80
2023-02-12T02:46:21.321Z,1032.81
2023-02-12T02:47:21.256Z,1032.87
2023-02-12T02:48:21.250Z,1032.83
2023-02-12T02:49:21.243Z,1032.83
2023-02-12T02:50:21.243Z,1032.83
2023-02-12T02:51:21.241Z,1032.82
2023-02-12T02:52:21.222Z,1032.80
2023-02-12T02:53:21.212Z,1032.80
2023-02-12T02:54:21.211Z,1032.78
2023-02-12T02:55:21.195Z,1032.77
2023-02-12T02:56:21.215Z,1032.78
2023-02-12T02:57:21.182Z,1032.80
2023-02-12T02:58:21.174Z,1032.81
2023-02-12T02:59:21.164Z,1032.78
2023-02-12T03:00:21.160Z,1032.79
2023-02-12T03:01:21.264Z,1032.85
2023-02-12T03:02:21.149Z,1032.86
2023-02-12T03:03:21.198Z,1032.86
2023-02-12T03:04:21.129Z,1032.83
2023-02-12T03:05:21.116Z,1032.85
2023-02-12T03:06:21.117Z,1032.85
2023-02-12T03:07:21.100Z,1032.81
2023-02-12T03:08:21.090Z,1032.79
2023-02-12T03:09:21.086Z,1032.79
2023-02-12T03:10:21.076Z,1032.75
2023-02-12T03:11:21.067Z,1032.79
2023-02-12T03:12:21.085Z,1032.77
2023-02-12T03:13:21.053Z,1032.77
2023-02-12T03:14:21.043Z,1032.78
2023-02-12T03:15:21.041Z,1032.81
2023-02-12T03:16:21.046Z,1032.78
2023-02-12T03:17:21.023Z,1032.78
2023-02-12T03:18:21.012Z,1032.77
2023-02-12T03:19:21.006Z,1032.81
2023-02-12T03:20:21.009Z,1032.78
2023-02-12T03:21:20.992Z,1032.83
2023-02-12T03:22:20.982Z,1032.84
2023-02-12T03:23:20.977Z,1032.81
2023-02-12T03:24:20.971Z,1032.80
2023-02-12T03:25:20.960Z,1032.78
2023-02-12T03:26:20.956Z,1032.76
2023-02-12T03:27:20.947Z,1032.75
2023-02-12T03:28:21.023Z,1032.74
2023-02-12T03:29:20.934Z,1032.77
2023-02-12T03:30:20.921Z,1032.77
2023-02-12T03:31:21.026Z,1032.74
2023-02-12T03:32:20.905Z,1032.75
2023-02-12T03:33:20.906Z,1032.80
2023-02-12T03:34:20.892Z,1032.75
2023-02-12T03:35:20.888Z,1032.74
2023-02-12T03:36:20.878Z,1032.76
2023-02-12T03:37:20.873Z,1032.72
2023-02-12T03:38:20.880Z,1032.67
2023-02-12T03:39:20.856Z,1032.69
2023-02-12T03:40:20.861Z,1032.70
2023-02-12T03:41:20.837Z,1032.64
2023-02-12T03:42:20.833Z,1032.68
2023-02-12T03:43:20.823Z,1032.69
2023-02-12T03:44:20.851Z,1032.68
2023-02-12T03:45:20.807Z,1032.69
2023-02-12T03:46:20.947Z,1032.68
2023-02-12T03:47:20.796Z,1032.68
2023-02-12T03:48:20.784Z,1032.69
2023-02-12T03:49:20.777Z,1032.68
2023-02-12T03:50:20.770Z,1032.68
2023-02-12T03:51:20.764Z,1032.70
2023-02-12T03:52:20.752Z,1032.68
2023-02-12T03:53:20.752Z,1032.68
2023-02-12T03:54:20.769Z,1032.62
2023-02-12T03:55:20.726Z,1032.67
2023-02-12T03:56:20.719Z,1032.68
2023-02-12T03:57:20.713Z,1032.63
2023-02-12T03:58:20.707Z,1032.64
2023-02-12T03:59:20.694Z,1032.64
2023-02-12T04:00:20.722Z,1032.66
2023-02-12T04:01:20.762Z,1032.69
2023-02-12T04:02:20.695Z,1032.68
2023-02-12T04:03:20.663Z,1032.71
2023-02-12T04:04:20.707Z,1032.72
2023-02-12T04:05:20.652Z,1032.73
2023-02-12T04:06:20.639Z,1032.69
2023-02-12T04:07:20.633Z,1032.69
2023-02-12T04:08:20.622Z,1032.69
2023-02-12T04:09:20.617Z,1032.72
2023-02-12T04:10:20.610Z,1032.70
2023-02-12T04:11:20.617Z,1032.72
2023-02-12T04:12:20.602Z,1032.71
2023-02-12T04:13:20.587Z,1032.73
2023-02-12T04:14:20.584Z,1032.71
2023-02-12T04:15:20.567Z,1032.73
2023-02-12T04:16:20.619Z,1032.77
2023-02-12T04:17:20.562Z,1032.77
2023-02-12T04:18:20.544Z,1032.78
2023-02-12T04:19:20.536Z,1032.80
2023-02-12T04:20:20.533Z,1032.81
2023-02-12T04:21:20.521Z,1032.82
2023-02-12T04:22:20.516Z,1032.85
2023-02-12T04:23:20.503Z,1032.86
2023-02-12T04:24:20.498Z,1032.86
2023-02-12T04:25:20.491Z,1032.89
2023-02-12T04:26:20.482Z,1032.90
2023-02-12T04:27:20.474Z,1032.93
2023-02-12T04:28:20.564Z,1032.96
2023-02-12T04:29:20.470Z,1032.96
2023-02-12T04:30:20.452Z,1032.95
2023-02-12T04:31:20.557Z,1032.96
2023-02-12T04:32:20.460Z,1032.95
2023-02-12T04:33:20.428Z,1032.95
2023-02-12T04:34:20.424Z,1032.96
2023-02-12T04:35:20.427Z,1032.95
2023-02-12T04:36:20.409Z,1032.96
2023-02-12T04:37:20.397Z,1032.99
2023-02-12T04:38:20.395Z,1032.98
2023-02-12T04:39:20.383Z,1032.98
2023-02-12T04:40:20.378Z,1033.00
2023-02-12T04:41:20.380Z,1033.04
2023-02-12T04:42:20.370Z,1033.06
2023-02-12T04:43:20.352Z,1033.06
2023-02-12T04:44:20.348Z,1033.06
2023-02-12T04:45:20.342Z,1033.09
2023-02-12T04:46:20.405Z,1033.06
2023-02-12T04:47:20.320Z,1033.07
2023-02-12T04:48:20.341Z,1033.10
2023-02-12T04:49:20.320Z,1033.08
2023-02-12T04:50:20.302Z,1033.08
2023-02-12T04:51:20.327Z,1033.13
2023-02-12T04:52:20.285Z,1033.09
2023-02-12T04:53:20.276Z,1033.09
2023-02-12T04:54:20.286Z,1033.09
2023-02-12T04:55:20.264Z,1033.12
2023-02-12T04:56:20.255Z,1033.11
2023-02-12T04:57:20.247Z,1033.11
2023-02-12T04:58:20.240Z,1033.07
2023-02-12T04:59:20.232Z,1033.04
2023-02-12T05:00:20.228Z,1033.07
2023-02-12T05:01:20.267Z,1033.06
2023-02-12T05:02:20.206Z,1033.06
2023-02-12T05:03:20.209Z,1033.09
2023-02-12T05:04:20.216Z,1033.13
2023-02-12T05:05:20.345Z,1033.12
2023-02-12T05:06:20.176Z,1033.08
2023-02-12T05:07:20.168Z,1033.12
2023-02-12T05:08:20.163Z,1033.12
2023-02-12T05:09:20.161Z,1033.11
2023-02-12T05:10:20.162Z,1033.12
2023-02-12T05:11:20.142Z,1033.10
2023-02-12T05:12:20.149Z,1033.05
2023-02-12T05:13:20.132Z,1033.07
2023-02-12T05:14:20.123Z,1033.09
2023-02-12T05:15:20.116Z,1033.08
2023-02-12T05:16:20.164Z,1033.14
2023-02-12T05:17:20.094Z,1033.10
2023-02-12T05:18:20.089Z,1033.15
2023-02-12T05:19:20.073Z,1033.15
2023-02-12T05:20:20.092Z,1033.14
2023-02-12T05:21:20.065Z,1033.14
2023-02-12T05:22:20.056Z,1033.12
2023-02-12T05:23:20.044Z,1033.13
2023-02-12T05:24:20.046Z,1033.16
2023-02-12T05:25:20.029Z,1033.15
2023-02-12T05:26:20.030Z,1033.15
2023-02-12T05:27:20.020Z,1033.14
2023-02-12T05:28:20.037Z,1033.16
2023-02-12T05:29:19.998Z,1033.15
2023-02-12T05:30:19.992Z,1033.17
2023-02-12T05:31:21.387Z,1033.16
2023-02-12T05:32:20.026Z,1033.18
2023-02-12T05:33:19.970Z,1033.19
2023-02-12T05:34:19.961Z,1033.16
2023-02-12T05:35:19.967Z,1033.18
2023-02-12T05:36:19.969Z,1033.21
2023-02-12T05:37:19.944Z,1033.18
2023-02-12T05:38:19.938Z,1033.17
2023-02-12T05:39:19.919Z,1033.17
2023-02-12T05:40:19.916Z,1033.18
2023-02-12T05:41:19.902Z,1033.17
2023-02-12T05:42:19.896Z,1033.20
2023-02-12T05:43:19.884Z,1033.21
2023-02-12T05:44:19.886Z,1033.24
2023-02-12T05:45:19.871Z,1033.24
2023-02-12T05:46:19.919Z,1033.23
2023-02-12T05:47:19.865Z,1033.24
2023-02-12T05:48:19.863Z,1033.30
2023-02-12T05:49:19.841Z,1033.28
2023-02-12T05:50:19.833Z,1033.29
2023-02-12T05:51:19.823Z,1033.30
2023-02-12T05:52:19.845Z,1033.28
2023-02-12T05:53:19.807Z,1033.33
2023-02-12T05:54:19.803Z,1033.34
2023-02-12T05:55:19.788Z,1033.33
2023-02-12T05:56:19.784Z,1033.35
2023-02-12T05:57:19.778Z,1033.36
2023-02-12T05:58:19.771Z,1033.36
2023-02-12T05:59:19.764Z,1033.34
2023-02-12T06:00:19.796Z,1033.33
2023-02-12T06:01:19.760Z,1033.33
2023-02-12T06:02:19.780Z,1033.31
2023-02-12T06:03:19.734Z,1033.31
2023-02-12T06:04:19.827Z,1033.30
2023-02-12T06:05:19.712Z,1033.33
2023-02-12T06:06:19.701Z,1033.36
2023-02-12T06:07:19.695Z,1033.35
2023-02-12T06:08:19.712Z,1033.37
2023-02-12T06:09:19.680Z,1033.42
2023-02-12T06:10:19.674Z,1033.39
2023-02-12T06:11:19.669Z,1033.40
2023-02-12T06:12:19.668Z,1033.37
2023-02-12T06:13:19.656Z,1033.35
2023-02-12T06:14:19.650Z,1033.35
2023-02-12T06:15:19.635Z,1033.32
2023-02-12T06:16:19.712Z,1033.33
2023-02-12T06:17:19.620Z,1033.29
2023-02-12T06:18:19.614Z,1033.33
2023-02-12T06:19:19.619Z,1033.31
2023-02-12T06:20:19.597Z,1033.30
2023-02-12T06:21:19.598Z,1033.32
2023-02-12T06:22:19.579Z,1033.30
2023-02-12T06:23:19.573Z,1033.32
2023-02-12T06:24:19.737Z,1033.30
2023-02-12T06:25:19.557Z,1033.33
2023-02-12T06:26:19.552Z,1033.29
2023-02-12T06:27:19.561Z,1033.28
2023-02-12T06:28:19.557Z,1033.30
2023-02-12T06:29:19.525Z,1033.32
2023-02-12T06:30:19.526Z,1033.31
2023-02-12T06:31:19.657Z,1033.32
2023-02-12T06:32:19.647Z,1033.31
2023-02-12T06:33:19.500Z,1033.31
2023-02-12T06:34:19.508Z,1033.33
2023-02-12T06:35:19.481Z,1033.30
2023-02-12T06:36:19.478Z,1033.31
2023-02-12T06:37:19.466Z,1033.32
2023-02-12T06:38:19.469Z,1033.30
2023-02-12T06:39:19.458Z,1033.35
2023-02-12T06:40:19.465Z,1033.34
2023-02-12T06:41:19.439Z,1033.33
2023-02-12T06:42:19.450Z,1033.35
2023-02-12T06:43:19.433Z,1033.38
2023-02-12T06:44:19.415Z,1033.37
2023-02-12T06:45:19.403Z,1033.37
2023-02-12T06:46:19.461Z,1033.34
2023-02-12T06:47:19.395Z,1033.39
2023-02-12T06:48:19.384Z,1033.40
2023-02-12T06:49:19.378Z,1033.38
2023-02-12T06:50:19.380Z,1033.39
2023-02-12T06:51:19.358Z,1033.35
2023-02-12T06:52:19.356Z,1033.37
2023-02-12T06:53:19.345Z,1033.42
2023-02-12T06:54:19.336Z,1033.44
2023-02-12T06:55:19.326Z,1033.45
2023-02-12T06:56:19.350Z,1033.47
2023-02-12T06:57:19.314Z,1033.45
2023-02-12T06:58:19.314Z,1033.49
2023-02-12T06:59:19.305Z,1033.52
2023-02-12T07:00:20.113Z,1033.52
2023-02-12T07:01:19.294Z,1033.54
2023-02-12T07:02:19.281Z,1033.53
2023-02-12T07:03:19.268Z,1033.57
2023-02-12T07:04:19.303Z,1033.56
2023-02-12T07:05:19.254Z,1033.62
2023-02-12T07:06:19.246Z,1033.59
2023-02-12T07:07:19.234Z,1033.60
2023-02-12T07:08:19.227Z,1033.59
2023-02-12T07:09:19.218Z,1033.59
2023-02-12T07:10:19.216Z,1033.56
2023-02-12T07:11:19.202Z,1033.60
2023-02-12T07:12:19.220Z,1033.62
2023-02-12T07:13:19.188Z,1033.63
2023-02-12T07:14:19.182Z,1033.64
2023-02-12T07:15:19.180Z,1033.64
2023-02-12T07:16:19.297Z,1033.64
2023-02-12T07:17:19.161Z,1033.65
2023-02-12T07:18:19.150Z,1033.67
2023-02-12T07:19:19.177Z,1033.64
2023-02-12T07:20:19.140Z,1033.66
2023-02-12T07:21:19.125Z,1033.63
2023-02-12T07:22:19.145Z,1033.64
2023-02-12T07:23:19.115Z,1033.63
2023-02-12T07:24:19.114Z,1033.64
2023-02-12T07:25:19.099Z,1033.62
2023-02-12T07:26:19.087Z,1033.66
2023-02-12T07:27:19.082Z,1033.66
2023-02-12T07:28:19.123Z,1033.66
2023-02-12T07:29:19.064Z,1033.66
2023-02-12T07:30:19.057Z,1033.66
2023-02-12T07:31:19.266Z,1033.62
2023-02-12T07:32:19.040Z,1033.65
2023-02-12T07:33:19.033Z,1033.67
2023-02-12T07:34:19.025Z,1033.67
2023-02-12T07:35:19.025Z,1033.70
2023-02-12T07:36:19.027Z,1033.70
2023-02-12T07:37:19.004Z,1033.71
2023-02-12T07:38:19.000Z,1033.72
2023-02-12T07:39:18.989Z,1033.71
2023-02-12T07:40:18.982Z,1033.74
2023-02-12T07:41:18.994Z,1033.74
2023-02-12T07:42:18.973Z,1033.77
2023-02-12T07:43:18.959Z,1033.77
2023-02-12T07:44:18.990Z,1033.79
2023-02-12T07:45:18.947Z,1033.82
2023-02-12T07:46:19.050Z,1033.79
2023-02-12T07:47:18.922Z,1033.80
2023-02-12T07:48:18.919Z,1033.79
2023-02-12T07:49:18.910Z,1033.79
2023-02-12T07:50:18.902Z,1033.81
2023-02-12T07:51:18.893Z,1033.81
2023-02-12T07:52:18.892Z,1033.78
2023-02-12T07:53:18.885Z,1033.78
2023-02-12T07:54:18.907Z,1033.76
2023-02-12T07:55:18.865Z,1033.77
2023-02-12T07:56:18.860Z,1033.78
2023-02-12T07:57:18.849Z,1033.80
2023-02-12T07:58:18.844Z,1033.81
2023-02-12T07:59:18.844Z,1033.81
2023-02-12T08:00:18.847Z,1033.82
2023-02-12T08:01:18.820Z,1033.81
2023-02-12T08:02:18.857Z,1033.83
2023-02-12T08:03:18.806Z,1033.83
2023-02-12T08:04:18.841Z,1033.86
2023-02-12T08:05:18.789Z,1033.89
2023-02-12T08:06:18.785Z,1033.89
2023-02-12T08:07:18.773Z,1033.90
2023-02-12T08:08:18.771Z,1033.91
2023-02-12T08:09:18.763Z,1033.91
2023-02-12T08:10:18.772Z,1033.93
2023-02-12T08:11:18.743Z,1033.90
2023-02-12T08:12:18.750Z,1033.93
2023-02-12T08:13:18.728Z,1033.95
2023-02-12T08:14:18.757Z,1033.98
2023-02-12T08:15:18.711Z,1033.96
2023-02-12T08:16:18.817Z,1033.98
2023-02-12T08:17:18.697Z,1034.00
2023-02-12T08:18:18.691Z,1034.02
2023-02-12T08:19:21.879Z,1033.99
2023-02-12T08:20:18.675Z,1033.99
2023-02-12T08:21:18.668Z,1034.00
2023-02-12T08:22:18.655Z,1033.97
2023-02-12T08:23:18.654Z,1033.99
2023-02-12T08:24:18.644Z,1034.01
2023-02-12T08:25:18.635Z,1034.02
2023-02-12T08:26:18.638Z,1034.00
2023-02-12T08:27:18.622Z,1034.01
2023-02-12T08:28:18.686Z,1034.05
2023-02-12T08:29:18.626Z,1034.07
2023-02-12T08:30:18.598Z,1034.06
2023-02-12T08:31:18.739Z,1034.08
2023-02-12T08:32:18.600Z,1034.11
2023-02-12T08:33:18.598Z,1034.08
2023-02-12T08:34:18.594Z,1034.11
2023-02-12T08:35:18.563Z,1034.09
2023-02-12T08:36:18.575Z,1034.11
2023-02-12T08:37:18.544Z,1034.10
2023-02-12T08:38:18.539Z,1034.14
2023-02-12T08:39:18.529Z,1034.14
2023-02-12T08:40:18.521Z,1034.15
2023-02-12T08:41:20.601Z,1034.20
2023-02-12T08:42:18.507Z,1034.19
2023-02-12T08:43:18.502Z,1034.19
2023-02-12T08:44:18.489Z,1034.19
2023-02-12T08:45:18.487Z,1034.20
2023-02-12T08:46:18.546Z,1034.22
2023-02-12T08:47:18.468Z,1034.22
2023-02-12T08:48:18.478Z,1034.20
2023-02-12T08:49:18.452Z,1034.20
2023-02-12T08:50:18.440Z,1034.21
2023-02-12T08:51:18.438Z,1034.20
2023-02-12T08:52:18.424Z,1034.20
2023-02-12T08:53:18.421Z,1034.16
2023-02-12T08:54:18.409Z,1034.19
2023-02-12T08:55:18.402Z,1034.15
2023-02-12T08:56:18.406Z,1034.15
2023-02-12T08:57:18.395Z,1034.16
2023-02-12T08:58:18.381Z,1034.16
2023-02-12T08:59:18.388Z,1034.18
2023-02-12T09:00:18.363Z,1034.16
2023-02-12T09:01:18.414Z,1034.19
2023-02-12T09:02:18.423Z,1034.18
2023-02-12T09:03:18.352Z,1034.15
2023-02-12T09:04:18.410Z,1034.11
2023-02-12T09:05:18.325Z,1034.14
2023-02-12T09:06:18.317Z,1034.15
2023-02-12T09:07:18.316Z,1034.15
2023-02-12T09:08:18.300Z,1034.14
2023-02-12T09:09:18.292Z,1034.14
2023-02-12T09:10:18.284Z,1034.17
2023-02-12T09:11:18.282Z,1034.17
2023-02-12T09:12:18.268Z,1034.20
2023-02-12T09:13:18.271Z,1034.20
2023-02-12T09:14:18.251Z,1034.19
2023-02-12T09:15:18.246Z,1034.23
2023-02-12T09:16:18.264Z,1034.20
2023-02-12T09:17:18.233Z,1034.24
2023-02-12T09:18:18.222Z,1034.26
2023-02-12T09:19:18.217Z,1034.25
2023-02-12T09:20:18.235Z,1034.28
2023-02-12T09:21:18.203Z,1034.26
2023-02-12T09:22:18.194Z,1034.28
2023-02-12T09:23:18.187Z,1034.26
2023-02-12T09:24:18.182Z,1034.27
2023-02-12T09:25:18.376Z,1034.27
2023-02-12T09:26:18.163Z,1034.23
2023-02-12T09:27:18.158Z,1034.29
2023-02-12T09:28:18.268Z,1034.28
2023-02-12T09:29:18.144Z,1034.29
2023-02-12T09:30:18.137Z,1034.31
2023-02-12T09:31:18.342Z,1034.30
2023-02-12T09:32:18.122Z,1034.28
2023-02-12T09:33:18.115Z,1034.32
2023-02-12T09:34:18.110Z,1034.32
2023-02-12T09:35:18.101Z,1034.29
2023-02-12T09:36:18.112Z,1034.32
2023-02-12T09:37:18.086Z,1034.30
2023-02-12T09:38:18.081Z,1034.26
2023-02-12T09:39:18.092Z,1034.29
2023-02-12T09:40:18.063Z,1034.27
2023-02-12T09:41:18.059Z,1034.30
2023-02-12T09:42:18.071Z,1034.30
2023-02-12T09:43:18.040Z,1034.25
2023-02-12T09:44:18.037Z,1034.27
2023-02-12T09:45:18.041Z,1034.26
2023-02-12T09:46:18.060Z,1034.23
2023-02-12T09:47:18.015Z,1034.22
2023-02-12T09:48:18.005Z,1034.22
2023-02-12T09:49:18.004Z,1034.22
2023-02-12T09:50:17.991Z,1034.23
2023-02-12T09:51:17.980Z,1034.22
2023-02-12T09:52:18.014Z,1034.25
2023-02-12T09:53:17.967Z,1034.27
2023-02-12T09:54:17.958Z,1034.28
2023-02-12T09:55:17.961Z,1034.28
2023-02-12T09:56:17.946Z,1034.28
2023-02-12T09:57:17.945Z,1034.31
2023-02-12T09:58:17.931Z,1034.33
2023-02-12T09:59:17.928Z,1034.31
2023-02-12T10:00:17.927Z,1034.33
2023-02-12T10:01:17.993Z,1034.34
2023-02-12T10:02:17.905Z,1034.36
2023-02-12T10:03:17.897Z,1034.36
2023-02-12T10:04:17.926Z,1034.37
2023-02-12T10:05:17.883Z,1034.35
2023-02-12T10:06:17.878Z,1034.37
2023-02-12T10:07:17.870Z,1034.35
2023-02-12T10:08:18.590Z,1034.37
2023-02-12T10:09:17.866Z,1034.38
2023-02-12T10:10:17.849Z,1034.34
2023-02-12T10:11:17.844Z,1034.36
2023-02-12T10:12:17.836Z,1034.40
2023-02-12T10:13:17.843Z,1034.43
2023-02-12T10:14:17.818Z,1034.42
2023-02-12T10:15:17.815Z,1034.41
2023-02-12T10:16:17.878Z,1034.40
2023-02-12T10:17:17.805Z,1034.43
2023-02-12T10:18:17.789Z,1034.41
2023-02-12T10:19:17.784Z,1034.42
2023-02-12T10:20:17.775Z,1034.39
2023-02-12T10:21:17.775Z,1034.38
2023-02-12T10:22:17.760Z,1034.37
2023-02-12T10:23:17.774Z,1034.38
2023-02-12T10:24:17.771Z,1034.38
2023-02-12T10:25:17.747Z,1034.36
2023-02-12T10:26:17.936Z,1034.37
2023-02-12T10:27:17.734Z,1034.36
2023-02-12T10:28:17.776Z,1034.34
2023-02-12T10:29:17.717Z,1034.34
2023-02-12T10:30:17.718Z,1034.35
2023-02-12T10:31:17.863Z,1034.36
2023-02-12T10:32:17.703Z,1034.36
2023-02-12T10:33:17.689Z,1034.37
2023-02-12T10:34:17.671Z,1034.37
2023-02-12T10:35:17.676Z,1034.35
2023-02-12T10:36:17.656Z,1034.35
2023-02-12T10:37:17.649Z,1034.31
2023-02-12T10:38:17.641Z,1034.35
2023-02-12T10:39:17.634Z,1034.31
2023-02-12T10:40:17.649Z,1034.35
2023-02-12T10:41:17.625Z,1034.28
2023-02-12T10:42:17.609Z,1034.29
2023-02-12T10:43:17.607Z,1034.28
2023-02-12T10:44:17.606Z,1034.30
2023-02-12T10:45:17.592Z,1034.29
2023-02-12T10:46:17.666Z,1034.28
2023-02-12T10:47:17.580Z,1034.24
2023-02-12T10:48:19.061Z,1034.25
2023-02-12T10:49:17.581Z,1034.28
2023-02-12T10:50:17.552Z,1034.23
2023-02-12T10:51:17.547Z,1034.23
2023-02-12T10:52:17.544Z,1034.27
2023-02-12T10:53:17.534Z,1034.24
2023-02-12T10:54:17.524Z,1034.23
2023-02-12T10:55:17.520Z,1034.24
2023-02-12T10:56:17.529Z,1034.21
2023-02-12T10:57:17.506Z,1034.24
2023-02-12T10:58:17.494Z,1034.26
2023-02-12T10:59:17.490Z,1034.28
2023-02-12T11:00:17.482Z,1034.24
2023-02-12T11:01:17.618Z,1034.26
2023-02-12T11:02:17.469Z,1034.26
2023-02-12T11:03:17.461Z,1034.25
2023-02-12T11:04:17.458Z,1034.24
2023-02-12T11:05:17.541Z,1034.24
2023-02-12T11:06:17.441Z,1034.21
2023-02-12T11:07:17.434Z,1034.18
2023-02-12T11:08:17.431Z,1034.19
2023-02-12T11:09:17.422Z,1034.20
2023-02-12T11:10:17.414Z,1034.20
2023-02-12T11:11:17.405Z,1034.17
2023-02-12T11:12:17.421Z,1034.20
2023-02-12T11:13:17.394Z,1034.25
2023-02-12T11:14:17.384Z,1034.22
2023-02-12T11:15:17.378Z,1034.19
2023-02-12T11:16:17.465Z,1034.16
2023-02-12T11:17:17.365Z,1034.11
2023-02-12T11:18:17.357Z,1034.11
2023-02-12T11:19:17.356Z,1034.10
2023-02-12T11:20:17.344Z,1034.12
2023-02-12T11:21:17.337Z,1034.11
2023-02-12T11:22:17.329Z,1034.10
2023-02-12T11:23:17.324Z,1034.13
2023-02-12T11:24:17.317Z,1034.11
2023-02-12T11:25:17.313Z,1034.07
2023-02-12T11:26:17.503Z,1034.08
2023-02-12T11:27:17.295Z,1034.02
2023-02-12T11:28:17.467Z,1034.02
2023-02-12T11:29:17.450Z,1034.01
2023-02-12T11:30:17.275Z,1034.03
2023-02-12T11:31:17.369Z,1034.02
2023-02-12T11:32:17.275Z,1034.00
2023-02-12T11:33:17.254Z,1034.03
2023-02-12T11:34:17.250Z,1034.00
2023-02-12T11:35:17.239Z,1034.01
2023-02-12T11:36:17.231Z,1033.97
2023-02-12T11:37:17.228Z,1033.97
2023-02-12T11:38:17.219Z,1033.96
2023-02-12T11:39:17.221Z,1033.95
2023-02-12T11:40:17.209Z,1033.92
2023-02-12T11:41:17.204Z,1033.93
2023-02-12T11:42:17.198Z,1033.93
2023-02-12T11:43:17.186Z,1033.90
2023-02-12T11:44:17.205Z,1033.93
2023-02-12T11:45:17.179Z,1033.91
2023-02-12T11:46:17.180Z,1033.91
2023-02-12T11:47:17.162Z,1033.88
2023-02-12T11:48:17.155Z,1033.88
2023-02-12T11:49:17.150Z,1033.90
2023-02-12T11:50:17.142Z,1033.90
2023-02-12T11:51:17.137Z,1033.87
2023-02-12T11:52:17.128Z,1033.87
2023-02-12T11:53:17.123Z,1033.86
2023-02-12T11:54:17.118Z,1033.85
2023-02-12T11:55:17.107Z,1033.86
2023-02-12T11:56:17.103Z,1033.85
2023-02-12T11:57:17.096Z,1033.89
2023-02-12T11:58:17.093Z,1033.82
2023-02-12T11:59:17.082Z,1033.85
2023-02-12T12:00:17.104Z,1033.79
2023-02-12T12:01:19.425Z,1033.81
2023-02-12T12:02:17.123Z,1033.75
2023-02-12T12:03:17.100Z,1033.75
2023-02-12T12:04:17.047Z,1033.74
2023-02-12T12:05:17.037Z,1033.76